Ingenio Santa Ana, Argentina
Current Conditions -  °F | °C
As of 8:00 AM on Friday 24 Oct 2014 (Local Time) from SANT Reporting Station
Clear Clear  
Wind Chill: 72°   Ceiling: Unl
Heat Index: 72°   Visibility: 6mi
Dew Point: 61°   Wind: 3mph
Humidity: 69%   Direction: 320°NW
Pressure: 29.97"   Gusts: NA
Location:  27.47°S, 65.68°W
Report Text: SANT 241100Z 32003KT CAVOK 22/16 Q1015
Loading
Personal Weather Stations






























Interactive Weather Map
Tropical Storm Tracking
New forecast layout! Learn more

10-Day Weather Forecast

Advertisements
Track Severe Weather on mobile